sensor_id;sensor_type;location;lat;lon;timestamp;pressure;altitude;pressure_sealevel;temperature;humidity
69982;BME280;57319;56.274;43.980;2023-01-25T00:01:52;101099.19;;;-6.43;81.41
69982;BME280;57319;56.274;43.980;2023-01-25T00:04:19;101104.69;;;-6.37;81.87
69982;BME280;57319;56.274;43.980;2023-01-25T00:06:44;101099.78;;;-6.36;81.70
69982;BME280;57319;56.274;43.980;2023-01-25T00:09:10;101091.13;;;-6.39;81.43
69982;BME280;57319;56.274;43.980;2023-01-25T00:11:36;101088.34;;;-6.32;81.65
69982;BME280;57319;56.274;43.980;2023-01-25T00:14:02;101091.56;;;-6.23;81.33
69982;BME280;57319;56.274;43.980;2023-01-25T00:16:28;101082.47;;;-6.33;81.68
69982;BME280;57319;56.274;43.980;2023-01-25T00:18:54;101095.59;;;-6.25;81.29
69982;BME280;57319;56.274;43.980;2023-01-25T00:21:21;101095.34;;;-6.28;81.56
69982;BME280;57319;56.274;43.980;2023-01-25T00:23:47;101094.59;;;-6.27;81.39
69982;BME280;57319;56.274;43.980;2023-01-25T00:26:13;101086.09;;;-6.29;81.09
69982;BME280;57319;56.274;43.980;2023-01-25T00:28:39;101081.94;;;-6.28;81.08
69982;BME280;57319;56.274;43.980;2023-01-25T00:31:06;101088.28;;;-6.22;81.01
69982;BME280;57319;56.274;43.980;2023-01-25T00:33:55;101087.06;;;-6.27;81.16
69982;BME280;57319;56.274;43.980;2023-01-25T00:36:33;101091.75;;;-6.32;81.47
69982;BME280;57319;56.274;43.980;2023-01-25T00:39:05;101092.38;;;-6.34;81.64
69982;BME280;57319;56.274;43.980;2023-01-25T00:41:31;101090.72;;;-6.34;81.79
69982;BME280;57319;56.274;43.980;2023-01-25T00:43:57;101088.84;;;-6.36;81.95
69982;BME280;57319;56.274;43.980;2023-01-25T00:46:23;101081.72;;;-6.32;81.66
69982;BME280;57319;56.274;43.980;2023-01-25T00:48:49;101072.78;;;-6.28;81.59
69982;BME280;57319;56.274;43.980;2023-01-25T00:51:17;101073.91;;;-6.24;81.71
69982;BME280;57319;56.274;43.980;2023-01-25T00:53:42;101091.31;;;-6.26;81.80
69982;BME280;57319;56.274;43.980;2023-01-25T00:56:08;101088.94;;;-6.24;81.79
69982;BME280;57319;56.274;43.980;2023-01-25T00:58:33;101081.19;;;-6.27;81.63
69982;BME280;57319;56.274;43.980;2023-01-25T01:00:59;101074.91;;;-6.22;81.49
69982;BME280;57319;56.274;43.980;2023-01-25T01:03:24;101076.94;;;-6.28;81.84
69982;BME280;57319;56.274;43.980;2023-01-25T01:06:06;101077.03;;;-6.27;82.03
69982;BME280;57319;56.274;43.980;2023-01-25T01:08:33;101075.00;;;-6.21;81.94
69982;BME280;57319;56.274;43.980;2023-01-25T01:11:03;101068.66;;;-6.27;82.02
69982;BME280;57319;56.274;43.980;2023-01-25T01:13:29;101076.28;;;-6.26;82.40
69982;BME280;57319;56.274;43.980;2023-01-25T01:15:55;101074.13;;;-6.21;82.37
69982;BME280;57319;56.274;43.980;2023-01-25T01:18:21;101077.97;;;-6.15;82.29
69982;BME280;57319;56.274;43.980;2023-01-25T01:20:48;101072.53;;;-6.09;82.20
69982;BME280;57319;56.274;43.980;2023-01-25T01:23:14;101075.03;;;-6.09;82.26
69982;BME280;57319;56.274;43.980;2023-01-25T01:25:40;101074.53;;;-6.05;81.82
69982;BME280;57319;56.274;43.980;2023-01-25T01:28:06;101073.66;;;-6.05;82.06
69982;BME280;57319;56.274;43.980;2023-01-25T01:30:31;101080.75;;;-6.00;81.83
69982;BME280;57319;56.274;43.980;2023-01-25T01:32:57;101071.75;;;-5.98;82.25
69982;BME280;57319;56.274;43.980;2023-01-25T01:35:22;101069.41;;;-5.94;82.07
69982;BME280;57319;56.274;43.980;2023-01-25T01:37:48;101067.13;;;-5.91;81.99
69982;BME280;57319;56.274;43.980;2023-01-25T01:40:15;101065.84;;;-5.86;81.67
69982;BME280;57319;56.274;43.980;2023-01-25T01:56:40;101060.88;;;-5.97;81.39
69982;BME280;57319;56.274;43.980;2023-01-25T01:59:08;101061.00;;;-5.95;81.41
69982;BME280;57319;56.274;43.980;2023-01-25T02:01:34;101070.28;;;-5.94;81.37
69982;BME280;57319;56.274;43.980;2023-01-25T02:04:01;101066.81;;;-5.96;81.76
69982;BME280;57319;56.274;43.980;2023-01-25T02:06:47;101073.91;;;-5.90;82.14
69982;BME280;57319;56.274;43.980;2023-01-25T02:09:18;101066.81;;;-5.84;81.60
69982;BME280;57319;56.274;43.980;2023-01-25T02:11:45;101070.88;;;-5.86;81.14
69982;BME280;57319;56.274;43.980;2023-01-25T02:14:13;101072.72;;;-5.84;81.17
69982;BME280;57319;56.274;43.980;2023-01-25T02:16:40;101067.59;;;-5.85;80.85
69982;BME280;57319;56.274;43.980;2023-01-25T02:19:06;101054.59;;;-5.91;81.45
69982;BME280;57319;56.274;43.980;2023-01-25T02:21:39;101048.59;;;-5.93;81.63
69982;BME280;57319;56.274;43.980;2023-01-25T02:24:14;101051.88;;;-5.94;81.69
69982;BME280;57319;56.274;43.980;2023-01-25T02:26:42;101047.06;;;-5.91;82.28
69982;BME280;57319;56.274;43.980;2023-01-25T02:29:09;101047.53;;;-5.85;82.12
69982;BME280;57319;56.274;43.980;2023-01-25T02:31:35;101049.63;;;-5.80;81.32
69982;BME280;57319;56.274;43.980;2023-01-25T02:34:01;101053.84;;;-5.79;82.05
69982;BME280;57319;56.274;43.980;2023-01-25T02:36:31;101048.72;;;-5.80;81.81
69982;BME280;57319;56.274;43.980;2023-01-25T02:39:09;101059.41;;;-5.83;81.33
69982;BME280;57319;56.274;43.980;2023-01-25T02:41:38;101064.31;;;-5.84;81.54
69982;BME280;57319;56.274;43.980;2023-01-25T02:44:07;101053.63;;;-5.82;81.79
69982;BME280;57319;56.274;43.980;2023-01-25T02:46:36;101060.63;;;-5.77;81.85
69982;BME280;57319;56.274;43.980;2023-01-25T02:49:04;101052.69;;;-5.72;81.62
69982;BME280;57319;56.274;43.980;2023-01-25T02:51:32;101056.63;;;-5.75;81.64
69982;BME280;57319;56.274;43.980;2023-01-25T02:54:00;101042.22;;;-5.78;81.86
69982;BME280;57319;56.274;43.980;2023-01-25T02:56:27;101045.47;;;-5.79;82.34
69982;BME280;57319;56.274;43.980;2023-01-25T02:58:52;101047.22;;;-5.78;81.91
69982;BME280;57319;56.274;43.980;2023-01-25T03:01:18;101053.09;;;-5.77;82.02
69982;BME280;57319;56.274;43.980;2023-01-25T03:03:44;101049.94;;;-5.75;82.19
69982;BME280;57319;56.274;43.980;2023-01-25T03:12:53;101032.31;;;-5.65;81.79
69982;BME280;57319;56.274;43.980;2023-01-25T03:15:19;101033.41;;;-5.61;82.08
69982;BME280;57319;56.274;43.980;2023-01-25T03:17:44;101045.81;;;-5.63;81.87
69982;BME280;57319;56.274;43.980;2023-01-25T03:20:10;101038.31;;;-5.63;81.74
69982;BME280;57319;56.274;43.980;2023-01-25T03:22:36;101033.06;;;-5.54;81.65
69982;BME280;57319;56.274;43.980;2023-01-25T03:25:02;101037.22;;;-5.54;81.38
69982;BME280;57319;56.274;43.980;2023-01-25T03:27:29;101048.81;;;-5.56;81.38
69982;BME280;57319;56.274;43.980;2023-01-25T03:29:55;101050.53;;;-5.55;81.56
69982;BME280;57319;56.274;43.980;2023-01-25T03:32:21;101042.34;;;-5.53;81.72
69982;BME280;57319;56.274;43.980;2023-01-25T03:34:47;101046.72;;;-5.50;81.14
69982;BME280;57319;56.274;43.980;2023-01-25T03:37:12;101043.47;;;-5.49;81.59
69982;BME280;57319;56.274;43.980;2023-01-25T03:39:38;101043.34;;;-5.51;81.44
69982;BME280;57319;56.274;43.980;2023-01-25T03:42:03;101036.03;;;-5.48;81.10
69982;BME280;57319;56.274;43.980;2023-01-25T03:44:29;101021.09;;;-5.46;81.64
69982;BME280;57319;56.274;43.980;2023-01-25T03:46:54;101029.72;;;-5.42;81.03
69982;BME280;57319;56.274;43.980;2023-01-25T03:49:20;101043.13;;;-5.42;81.12
69982;BME280;57319;56.274;43.980;2023-01-25T03:51:45;101044.88;;;-5.41;81.30
69982;BME280;57319;56.274;43.980;2023-01-25T03:54:11;101046.41;;;-5.43;80.99
69982;BME280;57319;56.274;43.980;2023-01-25T03:56:37;101040.31;;;-5.47;81.13
69982;BME280;57319;56.274;43.980;2023-01-25T03:59:03;101035.72;;;-5.40;81.35
69982;BME280;57319;56.274;43.980;2023-01-25T04:01:28;101031.59;;;-5.40;80.77
69982;BME280;57319;56.274;43.980;2023-01-25T04:03:54;101025.88;;;-5.37;81.07
69982;BME280;57319;56.274;43.980;2023-01-25T04:06:20;101022.31;;;-5.41;81.33
69982;BME280;57319;56.274;43.980;2023-01-25T04:08:45;101036.91;;;-5.35;81.23
69982;BME280;57319;56.274;43.980;2023-01-25T04:11:11;101040.19;;;-5.36;81.31
69982;BME280;57319;56.274;43.980;2023-01-25T04:13:37;101040.19;;;-5.36;80.82
69982;BME280;57319;56.274;43.980;2023-01-25T04:16:04;101046.75;;;-5.38;80.85
69982;BME280;57319;56.274;43.980;2023-01-25T04:18:30;101044.53;;;-5.46;81.13
69982;BME280;57319;56.274;43.980;2023-01-25T04:20:56;101054.03;;;-5.53;81.49
69982;BME280;57319;56.274;43.980;2023-01-25T04:23:23;101044.53;;;-5.57;81.60
69982;BME280;57319;56.274;43.980;2023-01-25T04:25:53;101038.09;;;-5.54;81.66
69982;BME280;57319;56.274;43.980;2023-01-25T04:28:19;101044.53;;;-5.57;81.42
69982;BME280;57319;56.274;43.980;2023-01-25T04:30:45;101040.28;;;-5.58;81.60
69982;BME280;57319;56.274;43.980;2023-01-25T04:33:11;101034.72;;;-5.54;81.50
69982;BME280;57319;56.274;43.980;2023-01-25T04:35:37;101038.75;;;-5.56;81.66
69982;BME280;57319;56.274;43.980;2023-01-25T04:38:03;101056.13;;;-5.48;81.46
69982;BME280;57319;56.274;43.980;2023-01-25T04:40:29;101045.84;;;-5.51;81.48
69982;BME280;57319;56.274;43.980;2023-01-25T04:42:55;101045.97;;;-5.49;81.09
69982;BME280;57319;56.274;43.980;2023-01-25T04:45:22;101052.50;;;-5.51;81.49
69982;BME280;57319;56.274;43.980;2023-01-25T04:47:48;101054.03;;;-5.53;81.56
69982;BME280;57319;56.274;43.980;2023-01-25T04:50:14;101050.31;;;-5.58;81.67
69982;BME280;57319;56.274;43.980;2023-01-25T04:52:40;101031.31;;;-5.67;81.88
69982;BME280;57319;56.274;43.980;2023-01-25T04:55:05;101041.91;;;-5.59;81.91
69982;BME280;57319;56.274;43.980;2023-01-25T04:57:31;101042.78;;;-5.58;81.89
69982;BME280;57319;56.274;43.980;2023-01-25T04:59:56;101032.31;;;-5.65;81.86
69982;BME280;57319;56.274;43.980;2023-01-25T05:02:22;101035.69;;;-5.64;81.88
69982;BME280;57319;56.274;43.980;2023-01-25T05:04:48;101039.41;;;-5.59;81.68
69982;BME280;57319;56.274;43.980;2023-01-25T05:07:13;101031.25;;;-5.56;81.65
69982;BME280;57319;56.274;43.980;2023-01-25T05:09:39;101038.88;;;-5.55;81.89
69982;BME280;57319;56.274;43.980;2023-01-25T05:12:04;101040.75;;;-5.52;81.89
69982;BME280;57319;56.274;43.980;2023-01-25T05:14:37;101039.31;;;-5.60;81.68
69982;BME280;57319;56.274;43.980;2023-01-25T05:17:03;101037.56;;;-5.62;81.73
69982;BME280;57319;56.274;43.980;2023-01-25T05:19:29;101039.16;;;-5.62;82.01
69982;BME280;57319;56.274;43.980;2023-01-25T05:21:54;101039.53;;;-5.57;81.99
69982;BME280;57319;56.274;43.980;2023-01-25T05:24:24;101047.69;;;-5.60;81.92
69982;BME280;57319;56.274;43.980;2023-01-25T05:26:50;101046.84;;;-5.60;81.68
69982;BME280;57319;56.274;43.980;2023-01-25T05:29:29;101054.91;;;-5.53;81.41
69982;BME280;57319;56.274;43.980;2023-01-25T05:31:55;101059.69;;;-5.56;81.54
69982;BME280;57319;56.274;43.980;2023-01-25T05:34:20;101054.69;;;-5.56;81.26
69982;BME280;57319;56.274;43.980;2023-01-25T05:36:46;101052.19;;;-5.56;81.50
69982;BME280;57319;56.274;43.980;2023-01-25T05:39:11;101056.84;;;-5.72;82.05
69982;BME280;57319;56.274;43.980;2023-01-25T05:41:37;101062.41;;;-5.65;82.07
69982;BME280;57319;56.274;43.980;2023-01-25T05:44:03;101051.59;;;-5.64;81.98
69982;BME280;57319;56.274;43.980;2023-01-25T05:46:29;101055.00;;;-5.63;82.07
69982;BME280;57319;56.274;43.980;2023-01-25T05:48:55;101054.91;;;-5.65;81.94
69982;BME280;57319;56.274;43.980;2023-01-25T05:51:20;101058.84;;;-5.56;81.96
69982;BME280;57319;56.274;43.980;2023-01-25T05:53:46;101069.19;;;-5.52;81.99
69982;BME280;57319;56.274;43.980;2023-01-25T05:56:12;101064.72;;;-5.56;82.13
69982;BME280;57319;56.274;43.980;2023-01-25T05:58:38;101056.00;;;-5.49;81.75
69982;BME280;57319;56.274;43.980;2023-01-25T06:01:05;101053.81;;;-5.56;81.45
69982;BME280;57319;56.274;43.980;2023-01-25T06:03:32;101058.94;;;-5.55;81.95
69982;BME280;57319;56.274;43.980;2023-01-25T06:05:59;101062.53;;;-5.51;81.48
69982;BME280;57319;56.274;43.980;2023-01-25T06:08:27;101050.41;;;-5.57;81.82
69982;BME280;57319;56.274;43.980;2023-01-25T06:10:53;101062.53;;;-5.51;81.85
69982;BME280;57319;56.274;43.980;2023-01-25T06:13:19;101058.31;;;-5.52;81.54
69982;BME280;57319;56.274;43.980;2023-01-25T06:15:56;101055.13;;;-5.62;81.64
69982;BME280;57319;56.274;43.980;2023-01-25T06:18:22;101061.09;;;-5.59;81.62
69982;BME280;57319;56.274;43.980;2023-01-25T06:20:54;101063.19;;;-5.54;81.80
69982;BME280;57319;56.274;43.980;2023-01-25T06:23:20;101068.34;;;-5.52;82.21
69982;BME280;57319;56.274;43.980;2023-01-25T06:25:46;101076.19;;;-5.48;81.69
69982;BME280;57319;56.274;43.980;2023-01-25T06:28:11;101079.81;;;-5.44;81.72
69982;BME280;57319;56.274;43.980;2023-01-25T06:30:37;101082.75;;;-5.38;81.59
69982;BME280;57319;56.274;43.980;2023-01-25T06:33:02;101078.28;;;-5.30;81.43
69982;BME280;57319;56.274;43.980;2023-01-25T06:35:31;101077.41;;;-5.31;80.72
69982;BME280;57319;56.274;43.980;2023-01-25T06:37:57;101087.34;;;-5.44;81.13
69982;BME280;57319;56.274;43.980;2023-01-25T06:40:25;101081.88;;;-5.38;81.21
69982;BME280;57319;56.274;43.980;2023-01-25T06:42:51;101074.78;;;-5.32;81.06
69982;BME280;57319;56.274;43.980;2023-01-25T06:45:16;101077.19;;;-5.34;81.06
69982;BME280;57319;56.274;43.980;2023-01-25T06:47:42;101074.59;;;-5.23;81.41
69982;BME280;57319;56.274;43.980;2023-01-25T06:50:09;101064.56;;;-5.23;81.04
69982;BME280;57319;56.274;43.980;2023-01-25T06:52:35;101070.75;;;-5.18;81.27
69982;BME280;57319;56.274;43.980;2023-01-25T06:55:04;101068.34;;;-5.17;81.18
69982;BME280;57319;56.274;43.980;2023-01-25T06:57:31;101065.19;;;-5.14;81.14
69982;BME280;57319;56.274;43.980;2023-01-25T06:59:57;101062.91;;;-5.23;80.65
69982;BME280;57319;56.274;43.980;2023-01-25T07:02:23;101073.91;;;-5.21;81.12
69982;BME280;57319;56.274;43.980;2023-01-25T07:04:48;101075.22;;;-5.14;81.43
69982;BME280;57319;56.274;43.980;2023-01-25T07:07:14;101081.91;;;-5.15;80.94
69982;BME280;57319;56.274;43.980;2023-01-25T07:09:39;101068.03;;;-5.21;80.77
69982;BME280;57319;56.274;43.980;2023-01-25T07:12:06;101062.59;;;-5.28;80.98
69982;BME280;57319;56.274;43.980;2023-01-25T07:14:32;101059.53;;;-5.23;81.32
69982;BME280;57319;56.274;43.980;2023-01-25T07:16:57;101062.03;;;-5.23;81.30
69982;BME280;57319;56.274;43.980;2023-01-25T07:19:23;101075.00;;;-5.17;81.07
69982;BME280;57319;56.274;43.980;2023-01-25T07:21:49;101068.03;;;-5.09;81.03
69982;BME280;57319;56.274;43.980;2023-01-25T07:24:16;101069.34;;;-5.03;80.47
69982;BME280;57319;56.274;43.980;2023-01-25T07:26:42;101065.75;;;-5.06;80.69
69982;BME280;57319;56.274;43.980;2023-01-25T07:29:12;101063.22;;;-5.06;80.58
69982;BME280;57319;56.274;43.980;2023-01-25T07:31:38;101051.44;;;-5.07;80.96
69982;BME280;57319;56.274;43.980;2023-01-25T07:34:04;101044.44;;;-5.00;80.89
69982;BME280;57319;56.274;43.980;2023-01-25T07:36:30;101039.94;;;-4.92;80.40
69982;BME280;57319;56.274;43.980;2023-01-25T07:38:57;101041.16;;;-4.87;79.99
69982;BME280;57319;56.274;43.980;2023-01-25T07:41:23;101038.63;;;-4.87;80.25
69982;BME280;57319;56.274;43.980;2023-01-25T07:43:50;101049.13;;;-4.92;80.39
69982;BME280;57319;56.274;43.980;2023-01-25T07:46:16;101050.78;;;-4.93;80.33
69982;BME280;57319;56.274;43.980;2023-01-25T07:48:47;101043.00;;;-4.84;80.24
69982;BME280;57319;56.274;43.980;2023-01-25T07:51:14;101035.69;;;-4.81;80.06
69982;BME280;57319;56.274;43.980;2023-01-25T07:53:53;101046.28;;;-4.73;79.85
69982;BME280;57319;56.274;43.980;2023-01-25T07:56:24;101050.19;;;-4.65;79.98
69982;BME280;57319;56.274;43.980;2023-01-25T07:58:54;101043.63;;;-4.63;79.98
69982;BME280;57319;56.274;43.980;2023-01-25T08:01:21;101038.03;;;-4.59;79.45
69982;BME280;57319;56.274;43.980;2023-01-25T08:03:49;101048.09;;;-4.59;79.46
69982;BME280;57319;56.274;43.980;2023-01-25T08:06:15;101042.19;;;-4.60;79.54
69982;BME280;57319;56.274;43.980;2023-01-25T08:08:46;101045.81;;;-4.56;79.40
69982;BME280;57319;56.274;43.980;2023-01-25T08:11:22;101041.84;;;-4.52;79.40
69982;BME280;57319;56.274;43.980;2023-01-25T08:13:47;101036.06;;;-4.51;79.60
69982;BME280;57319;56.274;43.980;2023-01-25T08:16:15;101033.00;;;-4.59;79.16
69982;BME280;57319;56.274;43.980;2023-01-25T08:18:41;101028.22;;;-4.56;79.92
69982;BME280;57319;56.274;43.980;2023-01-25T08:21:08;101036.81;;;-4.52;79.64
69982;BME280;57319;56.274;43.980;2023-01-25T08:23:34;101027.66;;;-4.52;79.41
69982;BME280;57319;56.274;43.980;2023-01-25T08:26:04;101027.56;;;-4.53;79.47
69982;BME280;57319;56.274;43.980;2023-01-25T08:28:31;101034.19;;;-4.42;79.26
69982;BME280;57319;56.274;43.980;2023-01-25T08:31:11;101019.56;;;-4.48;79.37
69982;BME280;57319;56.274;43.980;2023-01-25T08:33:37;101012.88;;;-4.47;79.09
69982;BME280;57319;56.274;43.980;2023-01-25T08:36:03;101008.38;;;-4.39;79.49
69982;BME280;57319;56.274;43.980;2023-01-25T08:38:29;101003.19;;;-4.29;78.98
69982;BME280;57319;56.274;43.980;2023-01-25T08:40:55;101010.38;;;-4.22;79.27
69982;BME280;57319;56.274;43.980;2023-01-25T08:43:21;101011.06;;;-4.24;78.91
69982;BME280;57319;56.274;43.980;2023-01-25T08:45:54;101009.69;;;-4.19;78.74
69982;BME280;57319;56.274;43.980;2023-01-25T08:48:20;101018.69;;;-4.23;79.11
69982;BME280;57319;56.274;43.980;2023-01-25T08:50:46;101009.50;;;-4.22;78.71
69982;BME280;57319;56.274;43.980;2023-01-25T08:53:12;101007.56;;;-4.27;79.02
69982;BME280;57319;56.274;43.980;2023-01-25T08:55:38;101003.19;;;-4.29;78.99
69982;BME280;57319;56.274;43.980;2023-01-25T08:58:06;101003.94;;;-4.30;79.31
69982;BME280;57319;56.274;43.980;2023-01-25T09:00:37;100997.41;;;-4.28;79.03
69982;BME280;57319;56.274;43.980;2023-01-25T09:03:03;100999.72;;;-4.31;78.77
69982;BME280;57319;56.274;43.980;2023-01-25T09:05:29;100995.72;;;-4.41;79.22
69982;BME280;57319;56.274;43.980;2023-01-25T09:07:55;100993.75;;;-4.45;79.31
69982;BME280;57319;56.274;43.980;2023-01-25T09:10:20;100992.63;;;-4.37;79.40
69982;BME280;57319;56.274;43.980;2023-01-25T09:12:46;100989.66;;;-4.31;79.17
69982;BME280;57319;56.274;43.980;2023-01-25T09:15:12;100986.47;;;-4.29;79.02
69982;BME280;57319;56.274;43.980;2023-01-25T09:17:38;100983.63;;;-4.33;79.44
69982;BME280;57319;56.274;43.980;2023-01-25T09:20:07;100982.88;;;-4.32;79.27
69982;BME280;57319;56.274;43.980;2023-01-25T09:22:34;100978.94;;;-4.29;79.09
69982;BME280;57319;56.274;43.980;2023-01-25T09:25:00;100975.34;;;-4.32;79.09
69982;BME280;57319;56.274;43.980;2023-01-25T09:27:29;100977.94;;;-4.31;78.99
69982;BME280;57319;56.274;43.980;2023-01-25T09:29:54;100971.06;;;-4.33;78.98
69982;BME280;57319;56.274;43.980;2023-01-25T09:32:20;100972.94;;;-4.31;79.57
69982;BME280;57319;56.274;43.980;2023-01-25T09:34:46;100969.75;;;-4.28;78.82
69982;BME280;57319;56.274;43.980;2023-01-25T09:37:11;100957.75;;;-4.32;79.31
69982;BME280;57319;56.274;43.980;2023-01-25T09:39:37;100971.41;;;-4.29;79.02
69982;BME280;57319;56.274;43.980;2023-01-25T09:50:34;100950.41;;;-4.29;79.41
69982;BME280;57319;56.274;43.980;2023-01-25T09:55:57;100938.34;;;-4.21;79.73
69982;BME280;57319;56.274;43.980;2023-01-25T09:58:31;100935.81;;;-4.21;79.36
69982;BME280;57319;56.274;43.980;2023-01-25T10:01:06;100932.31;;;-4.23;79.53
69982;BME280;57319;56.274;43.980;2023-01-25T10:03:57;100932.28;;;-4.12;79.01
69982;BME280;57319;56.274;43.980;2023-01-25T10:06:38;100930.13;;;-4.05;79.09
69982;BME280;57319;56.274;43.980;2023-01-25T10:12:19;100933.94;;;-3.99;78.99
69982;BME280;57319;56.274;43.980;2023-01-25T10:14:46;100939.19;;;-3.96;78.85
69982;BME280;57319;56.274;43.980;2023-01-25T10:20:02;100930.25;;;-4.04;78.95
69982;BME280;57319;56.274;43.980;2023-01-25T10:22:40;100934.53;;;-3.89;79.05
69982;BME280;57319;56.274;43.980;2023-01-25T10:30:30;100914.59;;;-3.86;79.48
69982;BME280;57319;56.274;43.980;2023-01-25T10:33:10;100920.13;;;-3.79;79.02
69982;BME280;57319;56.274;43.980;2023-01-25T10:35:44;100907.91;;;-3.99;79.44
69982;BME280;57319;56.274;43.980;2023-01-25T10:38:31;100913.81;;;-3.99;79.77
69982;BME280;57319;56.274;43.980;2023-01-25T10:41:23;100900.56;;;-3.96;79.56
69982;BME280;57319;56.274;43.980;2023-01-25T10:43:48;100901.16;;;-3.87;80.19
69982;BME280;57319;56.274;43.980;2023-01-25T10:46:34;100895.25;;;-3.74;79.65
69982;BME280;57319;56.274;43.980;2023-01-25T10:49:08;100895.34;;;-3.86;79.78
69982;BME280;57319;56.274;43.980;2023-01-25T10:51:42;100889.25;;;-3.89;79.76
69982;BME280;57319;56.274;43.980;2023-01-25T10:54:13;100866.31;;;-3.94;79.43
69982;BME280;57319;56.274;43.980;2023-01-25T10:56:41;100868.75;;;-3.96;79.75
69982;BME280;57319;56.274;43.980;2023-01-25T10:59:23;100875.59;;;-3.93;79.55
69982;BME280;57319;56.274;43.980;2023-01-25T11:01:50;100877.66;;;-3.87;79.84
69982;BME280;57319;56.274;43.980;2023-01-25T11:04:31;100871.91;;;-3.85;79.51
69982;BME280;57319;56.274;43.980;2023-01-25T11:06:58;100870.69;;;-3.92;80.07
69982;BME280;57319;56.274;43.980;2023-01-25T11:09:35;100860.69;;;-4.03;79.97
69982;BME280;57319;56.274;43.980;2023-01-25T11:12:22;100864.56;;;-3.95;80.30
69982;BME280;57319;56.274;43.980;2023-01-25T11:14:48;100865.53;;;-3.80;80.36
69982;BME280;57319;56.274;43.980;2023-01-25T11:17:22;100862.34;;;-3.77;79.80
69982;BME280;57319;56.274;43.980;2023-01-25T11:20:05;100858.16;;;-3.77;80.06
69982;BME280;57319;56.274;43.980;2023-01-25T11:22:31;100865.84;;;-3.75;79.95
69982;BME280;57319;56.274;43.980;2023-01-25T11:24:57;100861.19;;;-3.82;80.33
69982;BME280;57319;56.274;43.980;2023-01-25T11:27:25;100861.84;;;-3.85;80.67
69982;BME280;57319;56.274;43.980;2023-01-25T11:30:09;100846.88;;;-3.83;80.68
69982;BME280;57319;56.274;43.980;2023-01-25T11:32:39;100853.25;;;-3.88;80.55
69982;BME280;57319;56.274;43.980;2023-01-25T11:35:24;100852.78;;;-3.83;80.86
69982;BME280;57319;56.274;43.980;2023-01-25T11:38:12;100849.84;;;-3.89;80.75
69982;BME280;57319;56.274;43.980;2023-01-25T11:40:43;100851.78;;;-3.85;80.89
69982;BME280;57319;56.274;43.980;2023-01-25T11:43:41;100851.22;;;-3.81;80.84
69982;BME280;57319;56.274;43.980;2023-01-25T11:48:42;100835.53;;;-3.77;80.99
69982;BME280;57319;56.274;43.980;2023-01-25T12:24:02;100814.06;;;-3.85;81.17
69982;BME280;57319;56.274;43.980;2023-01-25T12:32:12;100799.44;;;-3.90;81.17
69982;BME280;57319;56.274;43.980;2023-01-25T12:34:46;100793.66;;;-3.89;81.29
69982;BME280;57319;56.274;43.980;2023-01-25T12:37:23;100789.59;;;-3.87;81.05
69982;BME280;57319;56.274;43.980;2023-01-25T12:40:08;100791.13;;;-3.89;80.82
69982;BME280;57319;56.274;43.980;2023-01-25T12:42:41;100789.22;;;-3.94;80.58
69982;BME280;57319;56.274;43.980;2023-01-25T12:45:19;100776.06;;;-4.03;80.98
69982;BME280;57319;56.274;43.980;2023-01-25T12:47:52;100770.25;;;-4.02;81.00
69982;BME280;57319;56.274;43.980;2023-01-25T12:53:04;100772.09;;;-3.99;81.27
69982;BME280;57319;56.274;43.980;2023-01-25T12:55:32;100762.63;;;-4.03;81.15
69982;BME280;57319;56.274;43.980;2023-01-25T12:58:14;100765.03;;;-4.05;81.55
69982;BME280;57319;56.274;43.980;2023-01-25T13:06:33;100744.84;;;-4.06;81.88
69982;BME280;57319;56.274;43.980;2023-01-25T13:11:53;100741.25;;;-4.10;81.91
69982;BME280;57319;56.274;43.980;2023-01-25T13:14:28;100733.53;;;-4.13;82.12
69982;BME280;57319;56.274;43.980;2023-01-25T13:17:10;100732.16;;;-4.08;81.88
69982;BME280;57319;56.274;43.980;2023-01-25T13:19:38;100722.97;;;-4.21;82.25
69982;BME280;57319;56.274;43.980;2023-01-25T13:22:08;100724.22;;;-4.14;81.96
69982;BME280;57319;56.274;43.980;2023-01-25T13:27:30;100718.03;;;-4.19;82.17
69982;BME280;57319;56.274;43.980;2023-01-25T13:30:00;100712.34;;;-4.30;82.43
69982;BME280;57319;56.274;43.980;2023-01-25T13:34:59;100707.88;;;-4.34;82.93
69982;BME280;57319;56.274;43.980;2023-01-25T13:37:33;100704.25;;;-4.39;83.31
69982;BME280;57319;56.274;43.980;2023-01-25T13:40:02;100709.81;;;-4.30;83.38
69982;BME280;57319;56.274;43.980;2023-01-25T13:42:31;100707.53;;;-4.27;83.30
69982;BME280;57319;56.274;43.980;2023-01-25T13:45:01;100711.66;;;-4.28;83.36
69982;BME280;57319;56.274;43.980;2023-01-25T13:47:33;100714.66;;;-4.20;82.75
69982;BME280;57319;56.274;43.980;2023-01-25T13:50:15;100712.81;;;-4.22;82.66
69982;BME280;57319;56.274;43.980;2023-01-25T13:53:16;100710.22;;;-4.24;82.50
69982;BME280;57319;56.274;43.980;2023-01-25T13:55:45;100712.06;;;-4.21;82.81
69982;BME280;57319;56.274;43.980;2023-01-25T13:58:23;100715.75;;;-4.30;82.72
69982;BME280;57319;56.274;43.980;2023-01-25T14:01:01;100701.81;;;-4.38;83.04
69982;BME280;57319;56.274;43.980;2023-01-25T14:03:42;100698.53;;;-4.37;83.39
69982;BME280;57319;56.274;43.980;2023-01-25T14:06:19;100709.44;;;-4.36;83.35
69982;BME280;57319;56.274;43.980;2023-01-25T14:08:45;100713.41;;;-4.40;83.60
69982;BME280;57319;56.274;43.980;2023-01-25T14:11:23;100714.06;;;-4.43;83.81
69982;BME280;57319;56.274;43.980;2023-01-25T14:16:45;100718.44;;;-4.40;83.51
69982;BME280;57319;56.274;43.980;2023-01-25T14:19:25;100717.66;;;-4.39;83.65
69982;BME280;57319;56.274;43.980;2023-01-25T14:22:26;100710.97;;;-4.38;82.82
69982;BME280;57319;56.274;43.980;2023-01-25T14:25:11;100708.19;;;-4.30;83.21
69982;BME280;57319;56.274;43.980;2023-01-25T14:27:44;100696.59;;;-4.41;83.22
69982;BME280;57319;56.274;43.980;2023-01-25T14:32:42;100697.84;;;-4.34;82.76
69982;BME280;57319;56.274;43.980;2023-01-25T14:35:26;100692.03;;;-4.33;83.10
69982;BME280;57319;56.274;43.980;2023-01-25T14:37:56;100709.34;;;-4.24;82.47